DTTX/SFA METAR and TAF weather

Enter ICAO airport designator
Station Type Date Time Source
DTTX METAR 2020/05/29 20:00 UTC NOAA

DTTX 292000Z VRB02KT 8000 SCT020 SCT030 23/16 Q1014


Station Type Date Time Source
DTTX Decoded METAR 2020/05/29 20:00 UTC NOAA

Sfax El-Maou, Tunisia (DTTX) 34-43N 010-41E 23M
May 29, 2020 - 04:00 PM EDT / 2020.05.29 2000 UTC
Wind: Variable at 2 MPH (2 KT):0
Visibility: 4 mile(s):0
Sky conditions: partly cloudy
Temperature: 73 F (23 C)
Dew Point: 60 F (16 C)
Relative Humidity: 64%
Pressure (altimeter): 29.94 in. Hg (1014 hPa)
ob: DTTX 292000Z VRB02KT 8000 SCT020 SCT030 23/16 Q1014
cycle: 20

Station Type Date Time Source
DTTX TAF 2020/05/29 18:03 UTC NOAA

TAF DTTX 291700Z 2918/3018 13012KT 8000 SCT020 PROB30
TEMPO 2918/2920 FEW026CB
BECMG 3006/3008 16006KT 9999 SCT030
BECMG 3012/3014 03005KT

Example: see airport list